createdAt,value
2022-09-03T00:00:31.422Z,7.30
2022-09-03T00:03:05.534Z,7.63
2022-09-03T00:05:52.783Z,7.07
2022-09-03T00:08:31.692Z,7.95
2022-09-03T00:11:08.556Z,7.53
2022-09-03T00:13:39.385Z,7.85
2022-09-03T00:16:19.805Z,7.70
2022-09-03T00:19:03.264Z,7.70
2022-09-03T00:21:40.031Z,8.07
2022-09-03T00:24:11.027Z,7.13
2022-09-03T00:26:49.333Z,7.65
2022-09-03T00:29:20.567Z,7.88
2022-09-03T00:31:54.083Z,7.78
2022-09-03T00:34:43.451Z,8.43
2022-09-03T00:37:15.267Z,7.82
2022-09-03T00:39:44.649Z,8.43
2022-09-03T00:42:24.055Z,7.78
2022-09-03T00:45:01.655Z,8.40
2022-09-03T00:47:50.484Z,8.15
2022-09-03T00:50:37.687Z,7.78
2022-09-03T00:53:13.787Z,8.57
2022-09-03T00:55:58.956Z,7.85
2022-09-03T00:58:45.295Z,8.15
2022-09-03T01:01:30.374Z,8.45
2022-09-03T01:04:22.488Z,7.97
2022-09-03T01:06:56.058Z,8.25
2022-09-03T01:09:48.662Z,8.15
2022-09-03T01:12:27.531Z,8.57
2022-09-03T01:15:14.610Z,8.75
2022-09-03T01:17:42.962Z,8.03
2022-09-03T01:20:16.543Z,8.02
2022-09-03T01:22:55.351Z,8.30
2022-09-03T01:25:31.623Z,8.88
2022-09-03T01:28:15.289Z,8.25
2022-09-03T01:30:47.652Z,8.48
2022-09-03T01:36:20.795Z,8.25
2022-09-03T01:39:11.941Z,7.70
2022-09-03T01:42:20.905Z,8.70
2022-09-03T01:45:02.220Z,8.98
2022-09-03T01:47:39.974Z,8.10
2022-09-03T01:50:13.139Z,8.15
2022-09-03T01:52:47.282Z,8.70
2022-09-03T01:55:32.653Z,8.52
2022-09-03T01:58:09.926Z,8.45
2022-09-03T02:00:40.615Z,8.45
2022-09-03T02:03:10.601Z,8.18
2022-09-03T02:05:39.632Z,8.60
2022-09-03T02:08:09.863Z,8.40
2022-09-03T02:10:43.457Z,8.95
2022-09-03T02:13:20.461Z,8.07
2022-09-03T02:15:52.567Z,8.55
2022-09-03T02:18:23.935Z,8.70
2022-09-03T02:20:54.245Z,8.90
2022-09-03T02:23:33.457Z,8.82
2022-09-03T02:26:07.461Z,8.75
2022-09-03T02:28:36.139Z,8.30
2022-09-03T02:31:14.828Z,8.68
2022-09-03T02:33:44.885Z,8.38
2022-09-03T02:36:15.209Z,8.57
2022-09-03T02:38:44.231Z,8.60
2022-09-03T02:41:15.589Z,8.10
2022-09-03T02:43:50.320Z,8.50
2022-09-03T02:46:21.966Z,8.82
2022-09-03T02:48:50.508Z,8.43
2022-09-03T02:51:20.668Z,9.27
2022-09-03T02:53:50.933Z,9.48
2022-09-03T02:56:19.797Z,9.32
2022-09-03T02:58:48.432Z,8.50
2022-09-03T03:01:19.698Z,9.27
2022-09-03T03:03:53.936Z,9.25
2022-09-03T03:06:22.643Z,8.57
2022-09-03T03:08:51.432Z,8.68
2022-09-03T03:11:20.447Z,8.75
2022-09-03T03:13:49.775Z,9.02
2022-09-03T03:16:18.759Z,8.27
2022-09-03T03:18:47.410Z,9.40
2022-09-03T03:21:17.287Z,9.40
2022-09-03T03:23:46.363Z,9.82
2022-09-03T03:26:18.868Z,9.93
2022-09-03T03:28:49.289Z,9.40
2022-09-03T03:31:19.367Z,9.38
2022-09-03T03:33:55.207Z,9.75
2022-09-03T03:36:24.348Z,9.20
2022-09-03T03:38:56.986Z,9.20
2022-09-03T03:41:35.452Z,9.43
2022-09-03T03:44:11.183Z,8.93
2022-09-03T03:46:40.885Z,9.43
2022-09-03T03:49:09.940Z,9.90
2022-09-03T03:51:38.904Z,9.38
2022-09-03T03:54:07.944Z,9.43
2022-09-03T03:56:36.485Z,9.57
2022-09-03T03:59:05.483Z,9.18
2022-09-03T04:01:44.194Z,9.55
2022-09-03T04:04:12.710Z,9.30
2022-09-03T04:06:41.189Z,9.70
2022-09-03T04:09:09.701Z,9.65
2022-09-03T04:11:38.263Z,9.68
2022-09-03T04:14:07.271Z,10.35
2022-09-03T04:16:37.321Z,9.90
2022-09-03T04:19:05.960Z,9.60
2022-09-03T04:21:34.775Z,9.85
2022-09-03T04:24:04.964Z,9.38
2022-09-03T04:26:34.306Z,8.88
2022-09-03T04:29:04.928Z,10.02
2022-09-03T04:31:33.612Z,10.13
2022-09-03T04:34:02.409Z,9.35
2022-09-03T04:36:31.427Z,9.93
2022-09-03T04:39:01.342Z,11.23
2022-09-03T04:41:31.705Z,9.38
2022-09-03T04:44:01.763Z,10.32
2022-09-03T04:46:34.851Z,9.98
2022-09-03T04:49:10.596Z,10.30
2022-09-03T04:51:39.057Z,9.90
2022-09-03T04:54:07.669Z,9.50
2022-09-03T04:56:36.230Z,9.25
2022-09-03T04:59:10.563Z,9.25
2022-09-03T05:01:47.340Z,10.40
2022-09-03T05:04:20.829Z,10.00
2022-09-03T05:06:59.459Z,9.90
2022-09-03T05:09:27.993Z,10.20
2022-09-03T05:11:56.427Z,10.57
2022-09-03T05:14:30.206Z,9.52
2022-09-03T05:16:58.761Z,9.95
2022-09-03T05:19:27.275Z,9.90
2022-09-03T05:21:55.726Z,9.48
2022-09-03T05:24:25.424Z,8.23
2022-09-03T05:26:59.182Z,8.32
2022-09-03T05:29:28.205Z,7.97
2022-09-03T05:31:56.883Z,8.40
2022-09-03T05:34:35.445Z,8.18
2022-09-03T05:37:04.016Z,8.02
2022-09-03T05:39:32.652Z,7.97
2022-09-03T05:42:12.942Z,8.20
2022-09-03T05:44:45.980Z,8.55
2022-09-03T05:47:16.912Z,8.45
2022-09-03T05:49:55.298Z,9.60
2022-09-03T05:52:23.985Z,9.80
2022-09-03T05:54:52.343Z,9.57
2022-09-03T05:57:31.345Z,9.63
2022-09-03T06:00:00.732Z,9.15
2022-09-03T06:02:34.030Z,9.13
2022-09-03T06:05:02.705Z,8.88
2022-09-03T06:07:40.392Z,8.40
2022-09-03T06:10:09.057Z,8.50
2022-09-03T06:12:42.646Z,8.85
2022-09-03T06:15:17.174Z,8.90
2022-09-03T06:17:56.976Z,8.77
2022-09-03T06:20:37.329Z,8.52
2022-09-03T06:23:06.425Z,8.25
2022-09-03T06:25:35.116Z,9.15
2022-09-03T06:28:13.743Z,8.63
2022-09-03T06:30:42.430Z,8.80
2022-09-03T06:33:11.408Z,8.68
2022-09-03T06:35:53.346Z,9.07
2022-09-03T06:38:23.243Z,8.60
2022-09-03T06:40:58.612Z,8.68
2022-09-03T06:43:27.589Z,8.50
2022-09-03T06:46:02.232Z,8.80
2022-09-03T06:48:31.681Z,9.68
2022-09-03T06:51:04.853Z,8.48
2022-09-03T06:53:38.395Z,9.15
2022-09-03T06:56:07.951Z,8.52
2022-09-03T06:58:44.477Z,8.13
2022-09-03T07:01:26.459Z,8.05
2022-09-03T07:03:59.571Z,8.52
2022-09-03T07:06:39.872Z,8.15
2022-09-03T07:09:08.980Z,8.18
2022-09-03T07:11:39.563Z,8.15
2022-09-03T07:14:19.160Z,7.82
2022-09-03T07:16:48.432Z,7.78
2022-09-03T07:19:17.374Z,8.63
2022-09-03T07:21:50.800Z,8.60
2022-09-03T07:24:20.152Z,7.78
2022-09-03T07:26:49.798Z,8.32
2022-09-03T07:29:24.164Z,7.50
2022-09-03T07:31:53.297Z,6.80
2022-09-03T07:34:25.570Z,7.60
2022-09-03T07:36:55.325Z,6.57
2022-09-03T07:39:23.868Z,6.90
2022-09-03T07:41:52.354Z,6.88
2022-09-03T07:44:20.961Z,6.75
2022-09-03T07:46:51.818Z,7.05
2022-09-03T07:49:22.347Z,7.80
2022-09-03T07:51:53.425Z,7.20
2022-09-03T07:54:22.625Z,6.78
2022-09-03T07:56:51.070Z,6.65
2022-09-03T07:59:20.871Z,6.70
2022-09-03T08:01:49.270Z,6.50
2022-09-03T08:04:28.625Z,6.38
2022-09-03T08:06:58.210Z,6.60
2022-09-03T08:09:26.892Z,6.60
2022-09-03T08:11:59.797Z,7.00
2022-09-03T08:14:30.744Z,7.38
2022-09-03T08:17:00.525Z,7.03
2022-09-03T08:19:28.942Z,7.63
2022-09-03T08:21:57.411Z,7.38
2022-09-03T08:24:26.885Z,8.98
2022-09-03T08:26:55.459Z,8.20
2022-09-03T08:29:23.882Z,8.70
2022-09-03T08:31:52.535Z,9.50
2022-09-03T08:34:31.130Z,9.35
2022-09-03T08:37:01.842Z,9.30
2022-09-03T08:39:35.296Z,9.50
2022-09-03T08:42:26.245Z,10.23
2022-09-03T08:45:03.001Z,9.20
2022-09-03T08:47:40.038Z,8.60
2022-09-03T08:50:28.910Z,8.27
2022-09-03T08:53:02.339Z,8.75
2022-09-03T08:55:51.016Z,8.18
2022-09-03T08:58:21.302Z,7.22
2022-09-03T09:01:08.331Z,8.07
2022-09-03T09:03:43.826Z,8.43
2022-09-03T09:06:16.427Z,8.98
2022-09-03T09:08:50.928Z,8.38
2022-09-03T09:11:31.206Z,8.31
2022-09-03T09:17:34.028Z,7.60
2022-09-03T09:20:08.578Z,6.78
2022-09-03T09:22:37.016Z,7.32
2022-09-03T09:25:17.516Z,6.85
2022-09-03T09:27:52.134Z,7.78
2022-09-03T09:30:26.045Z,6.68
2022-09-03T09:33:04.898Z,6.63
2022-09-03T09:35:42.287Z,6.22
2022-09-03T09:38:16.513Z,5.82
2022-09-03T09:40:52.469Z,6.88
2022-09-03T09:43:26.010Z,6.70
2022-09-03T09:45:54.450Z,18.95
2022-09-03T09:48:33.086Z,22.95
2022-09-03T09:51:08.329Z,24.20
2022-09-03T09:53:36.777Z,22.88
2022-09-03T09:56:10.182Z,17.88
2022-09-03T09:58:44.537Z,9.95
2022-09-03T10:01:15.546Z,9.57
2022-09-03T10:03:59.192Z,9.07
2022-09-03T10:06:51.506Z,8.48
2022-09-03T10:12:07.708Z,7.36
2022-09-03T10:14:42.951Z,8.00
2022-09-03T10:17:17.293Z,6.70
2022-09-03T10:22:57.462Z,8.57
2022-09-03T10:25:29.788Z,11.38
2022-09-03T10:28:01.526Z,10.95
2022-09-03T10:30:48.026Z,15.68
2022-09-03T10:33:22.125Z,18.08
2022-09-03T10:36:11.174Z,10.45
2022-09-03T10:38:40.686Z,15.45
2022-09-03T10:41:21.243Z,12.15
2022-09-03T10:44:07.868Z,12.50
2022-09-03T10:46:48.812Z,11.30
2022-09-03T10:52:01.648Z,12.02
2022-09-03T10:54:45.140Z,15.30
2022-09-03T10:57:16.692Z,97.22
2022-09-03T10:59:51.725Z,106.65
2022-09-03T11:02:43.690Z,27.90
2022-09-03T11:05:38.768Z,18.48
2022-09-03T11:08:23.230Z,10.95
2022-09-03T11:10:55.184Z,17.05
2022-09-03T11:13:56.883Z,20.23
2022-09-03T11:16:40.789Z,25.95
2022-09-03T11:19:16.677Z,15.48
2022-09-03T11:21:45.755Z,13.35
2022-09-03T11:24:16.825Z,12.13
2022-09-03T11:26:46.358Z,11.32
2022-09-03T11:29:20.014Z,12.95
2022-09-03T11:31:59.524Z,11.63
2022-09-03T11:34:32.233Z,13.43
2022-09-03T11:37:07.585Z,13.35
2022-09-03T11:39:37.683Z,13.77
2022-09-03T11:42:24.892Z,14.70
2022-09-03T11:44:53.225Z,14.80
2022-09-03T11:47:42.256Z,13.20
2022-09-03T11:50:25.090Z,15.02
2022-09-03T11:53:12.479Z,14.93
2022-09-03T11:55:55.224Z,14.68
2022-09-03T11:58:35.721Z,18.23
2022-09-03T12:01:10.981Z,17.38
2022-09-03T12:04:04.924Z,16.83
2022-09-03T12:06:43.751Z,12.43
2022-09-03T12:09:18.946Z,12.85
2022-09-03T12:12:06.571Z,11.73
2022-09-03T12:14:44.460Z,11.30
2022-09-03T12:17:41.583Z,12.07
2022-09-03T12:20:15.165Z,13.52
2022-09-03T12:22:43.821Z,21.55
2022-09-03T12:25:13.470Z,13.30
2022-09-03T12:27:44.703Z,12.52
2022-09-03T12:30:16.457Z,11.60
2022-09-03T12:32:47.873Z,11.25
2022-09-03T12:38:18.358Z,12.50
2022-09-03T12:43:38.008Z,10.77
2022-09-03T12:46:14.531Z,12.93
2022-09-03T12:52:04.566Z,10.38
2022-09-03T12:54:35.554Z,10.88
2022-09-03T12:57:04.182Z,11.70
2022-09-03T12:59:38.923Z,11.73
2022-09-03T13:02:15.885Z,15.27
2022-09-03T13:04:44.686Z,13.43
2022-09-03T13:07:24.783Z,13.50
2022-09-03T13:10:07.381Z,12.57
2022-09-03T13:12:52.994Z,14.75
2022-09-03T13:15:24.396Z,12.80
2022-09-03T13:17:59.154Z,13.38
2022-09-03T13:20:31.549Z,15.45
2022-09-03T13:23:08.266Z,12.25
2022-09-03T13:29:08.512Z,12.48
2022-09-03T13:31:43.071Z,11.75
2022-09-03T13:34:24.896Z,12.83
2022-09-03T13:40:27.178Z,12.27
2022-09-03T13:43:21.495Z,12.65
2022-09-03T13:45:58.210Z,13.13
2022-09-03T13:48:50.014Z,13.00
2022-09-03T13:51:49.516Z,14.35
2022-09-03T13:54:49.515Z,19.83
2022-09-03T13:57:20.206Z,20.90
2022-09-03T13:59:52.904Z,18.63
2022-09-03T14:02:26.900Z,19.20
2022-09-03T14:04:55.353Z,20.52
2022-09-03T14:10:55.421Z,21.15
2022-09-03T14:16:44.988Z,17.50
2022-09-03T14:19:22.761Z,18.58
2022-09-03T14:21:57.188Z,21.05
2022-09-03T14:24:45.460Z,18.13
2022-09-03T14:27:26.467Z,19.33
2022-09-03T14:29:59.169Z,16.98
2022-09-03T14:32:41.175Z,17.73
2022-09-03T14:35:29.632Z,16.40
2022-09-03T14:38:25.719Z,15.75
2022-09-03T14:41:07.923Z,15.25
2022-09-03T14:43:54.934Z,13.68
2022-09-03T14:46:42.846Z,13.48
2022-09-03T14:49:12.368Z,12.23
2022-09-03T14:51:52.913Z,13.35
2022-09-03T14:54:29.071Z,12.20
2022-09-03T14:59:31.054Z,12.02
2022-09-03T15:02:18.000Z,10.65
2022-09-03T15:05:11.663Z,10.85
2022-09-03T15:07:56.839Z,11.32
2022-09-03T15:10:33.473Z,10.95
2022-09-03T15:13:17.313Z,9.90
2022-09-03T15:16:22.334Z,10.92
2022-09-03T15:19:09.488Z,9.77
2022-09-03T15:21:43.042Z,10.23
2022-09-03T15:24:39.666Z,9.95
2022-09-03T15:30:22.393Z,9.90
2022-09-03T15:32:56.955Z,9.68
2022-09-03T15:35:45.353Z,9.63
2022-09-03T15:38:21.552Z,9.63
2022-09-03T15:44:20.931Z,9.25
2022-09-03T15:47:13.814Z,9.47
2022-09-03T15:50:07.028Z,9.90
2022-09-03T15:52:41.795Z,8.88
2022-09-03T15:55:32.688Z,9.40
2022-09-03T15:58:28.041Z,9.23
2022-09-03T16:01:03.400Z,9.20
2022-09-03T16:07:01.862Z,9.47
2022-09-03T16:09:44.660Z,8.30
2022-09-03T16:12:29.810Z,8.43
2022-09-03T16:15:21.047Z,9.40
2022-09-03T16:17:55.951Z,8.93
2022-09-03T16:20:27.930Z,9.27
2022-09-03T16:23:06.395Z,9.02
2022-09-03T16:25:51.447Z,8.82
2022-09-03T16:28:24.996Z,9.02
2022-09-03T16:31:12.466Z,9.73
2022-09-03T16:33:40.871Z,9.45
2022-09-03T16:36:12.347Z,8.93
2022-09-03T16:38:59.374Z,9.15
2022-09-03T16:41:31.576Z,8.25
2022-09-03T16:43:59.991Z,7.97
2022-09-03T16:46:52.069Z,7.85
2022-09-03T16:49:23.610Z,7.63
2022-09-03T16:52:07.434Z,7.93
2022-09-03T16:54:56.090Z,8.05
2022-09-03T16:57:35.883Z,9.40
2022-09-03T17:00:14.062Z,7.75
2022-09-03T17:02:57.831Z,8.23
2022-09-03T17:05:51.551Z,8.43
2022-09-03T17:08:32.503Z,8.30
2022-09-03T17:11:24.645Z,8.07
2022-09-03T17:14:11.796Z,7.63
2022-09-03T17:17:11.069Z,8.30
2022-09-03T17:19:56.530Z,7.82
2022-09-03T17:22:53.907Z,8.32
2022-09-03T17:25:37.333Z,8.20
2022-09-03T17:28:25.146Z,7.70
2022-09-03T17:31:27.602Z,7.18
2022-09-03T17:34:15.322Z,8.20
2022-09-03T17:37:01.935Z,8.02
2022-09-03T17:39:43.371Z,7.53
2022-09-03T17:42:20.975Z,7.32
2022-09-03T17:45:07.874Z,8.45
2022-09-03T17:48:02.006Z,9.00
2022-09-03T17:50:44.232Z,7.95
2022-09-03T17:56:23.680Z,8.70
2022-09-03T17:58:55.986Z,9.07
2022-09-03T18:01:29.122Z,9.95
2022-09-03T18:04:05.104Z,10.25
2022-09-03T18:06:50.549Z,10.10
2022-09-03T18:09:38.726Z,9.88
2022-09-03T18:12:22.138Z,10.05
2022-09-03T18:14:53.658Z,11.75
2022-09-03T18:17:28.824Z,10.93
2022-09-03T18:20:30.318Z,11.07
2022-09-03T18:23:30.464Z,11.50
2022-09-03T18:26:45.356Z,12.90
2022-09-03T18:29:54.431Z,14.27
2022-09-03T19:11:14.859Z,8.80
2022-09-03T19:14:01.797Z,6.45
2022-09-03T19:17:00.522Z,7.82
2022-09-03T19:19:57.655Z,8.15
2022-09-03T19:22:54.869Z,8.68
2022-09-03T19:25:44.389Z,7.00
2022-09-03T19:28:49.286Z,7.07
2022-09-03T19:31:44.230Z,6.90
2022-09-03T19:34:53.768Z,6.03
2022-09-03T19:37:56.076Z,6.13
2022-09-03T19:40:43.038Z,5.85
2022-09-03T19:43:36.843Z,5.90
2022-09-03T19:46:26.980Z,5.53
2022-09-03T19:49:13.848Z,5.90
2022-09-03T19:52:18.559Z,5.37
2022-09-03T19:55:09.277Z,5.65
2022-09-03T19:57:58.850Z,5.88
2022-09-03T20:00:46.289Z,6.32
2022-09-03T20:03:33.187Z,5.88
2022-09-03T20:06:22.512Z,6.95
2022-09-03T20:09:18.599Z,6.70
2022-09-03T20:11:52.854Z,6.53
2022-09-03T20:14:21.340Z,5.50
2022-09-03T20:16:49.633Z,6.35
2022-09-03T20:19:20.694Z,6.63
2022-09-03T20:22:02.060Z,6.35
2022-09-03T20:24:40.440Z,5.25
2022-09-03T20:27:36.230Z,5.05
2022-09-03T20:30:06.841Z,4.75
2022-09-03T20:32:54.186Z,4.93
2022-09-03T20:35:24.265Z,5.10
2022-09-03T20:38:08.087Z,5.07
2022-09-03T20:40:52.501Z,5.20
2022-09-03T20:43:33.782Z,5.13
2022-09-03T20:46:18.156Z,5.18
2022-09-03T20:48:52.366Z,5.25
2022-09-03T20:51:23.502Z,5.13
2022-09-03T20:54:02.143Z,5.45
2022-09-03T20:56:40.124Z,5.25
2022-09-03T20:59:12.847Z,5.07
2022-09-03T21:01:59.585Z,4.88
2022-09-03T21:04:48.460Z,5.25
2022-09-03T21:07:25.076Z,5.18
2022-09-03T21:10:08.463Z,4.57
2022-09-03T21:12:43.036Z,4.65
2022-09-03T21:15:16.009Z,4.45
2022-09-03T21:17:49.587Z,4.50
2022-09-03T21:20:35.280Z,4.65
2022-09-03T21:23:08.667Z,4.72
2022-09-03T21:25:43.363Z,4.93
2022-09-03T21:28:18.609Z,5.10
2022-09-03T21:35:55.185Z,5.18
2022-09-03T21:38:26.616Z,5.38
2022-09-03T21:41:03.362Z,5.35
2022-09-03T21:43:42.971Z,4.65
2022-09-03T21:46:33.283Z,5.07
2022-09-03T21:49:12.909Z,5.38
2022-09-03T21:51:46.959Z,5.40
2022-09-03T21:54:25.871Z,5.22
2022-09-03T22:00:18.165Z,5.90
2022-09-03T22:02:47.736Z,6.35
2022-09-03T22:05:16.827Z,5.97
2022-09-03T22:07:53.600Z,6.35
2022-09-03T22:10:28.463Z,6.28
2022-09-03T22:13:15.659Z,5.35
2022-09-03T22:15:48.564Z,5.78
2022-09-03T22:18:28.782Z,5.43
2022-09-03T22:21:13.660Z,6.45
2022-09-03T22:23:55.754Z,6.60
2022-09-03T22:26:43.247Z,6.43
2022-09-03T22:29:19.695Z,6.25
2022-09-03T22:35:12.669Z,6.70
2022-09-03T22:38:01.718Z,6.70
2022-09-03T22:40:33.748Z,6.93
2022-09-03T22:43:02.003Z,6.38
2022-09-03T22:45:35.234Z,6.75
2022-09-03T22:48:32.846Z,7.00
2022-09-03T22:51:13.061Z,6.95
2022-09-03T22:54:00.666Z,6.55
2022-09-03T22:56:31.454Z,7.03
2022-09-03T22:59:14.882Z,7.68
2022-09-03T23:01:53.253Z,7.13
2022-09-03T23:04:40.236Z,7.68
2022-09-03T23:07:25.647Z,7.63
2022-09-03T23:09:56.556Z,7.13
2022-09-03T23:15:41.999Z,7.10
2022-09-03T23:18:27.409Z,8.25
2022-09-03T23:21:08.273Z,8.23
2022-09-03T23:23:47.161Z,7.93
2022-09-03T23:26:35.078Z,7.88
2022-09-03T23:32:34.365Z,8.23
2022-09-03T23:35:04.100Z,8.38
2022-09-03T23:37:35.093Z,8.73
2022-09-03T23:40:03.962Z,9.10
2022-09-03T23:42:32.405Z,8.70
2022-09-03T23:45:15.376Z,8.82
2022-09-03T23:48:02.947Z,8.98
2022-09-03T23:50:37.885Z,8.48
2022-09-03T23:53:36.318Z,9.10
2022-09-03T23:56:23.646Z,9.57
2022-09-03T23:59:22.768Z,9.18
